Terminal Aerodrome Forecast
Issued by NWS Bismarck, ND

Home | Current Version | Previous Version | Graphics & Text | Print | Product List | Glossary On
Versions: 1 2 3 4 5 6 7 8 9 10 11 12 13 14 15 16 17 18 19
000
FTUS43 KBIS 231720
TAFISN
TAF
KISN 231720Z 2318/2418 32026G33KT P6SM SCT050
     FM240100 32015KT P6SM FEW070 FEW150
     FM241200 31008KT P6SM FEW020 FEW200
     FM241600 33016KT P6SM FEW045 FEW200=

USA.gov is the U.S. government's official web portal to all federal, state and local government web resources and services.